sensor_id;sensor_type;location;lat;lon;timestamp;P1;durP1;ratioP1;P2;durP2;ratioP2
3331;SDS011;1678;50.94845400;5.30809100;2023-02-23T11:01:32;63.23;;;32.17;;
3331;SDS011;1678;50.94845400;5.30809100;2023-02-23T11:04:12;64.83;;;35.03;;
3331;SDS011;1678;50.94845400;5.30809100;2023-02-23T11:06:47;73.27;;;34.20;;
3331;SDS011;1678;50.94845400;5.30809100;2023-02-23T11:09:22;69.07;;;33.73;;
3331;SDS011;1678;50.94845400;5.30809100;2023-02-23T11:12:14;58.00;;;32.90;;
3331;SDS011;1678;50.94845400;5.30809100;2023-02-23T11:14:47;57.27;;;29.17;;
3331;SDS011;1678;50.94845400;5.30809100;2023-02-23T11:17:28;50.27;;;29.13;;
3331;SDS011;1678;50.94845400;5.30809100;2023-02-23T11:19:59;50.30;;;26.50;;
3331;SDS011;1678;50.94845400;5.30809100;2023-02-23T11:22:31;57.37;;;29.73;;
3331;SDS011;1678;50.94845400;5.30809100;2023-02-23T11:25:02;42.80;;;23.57;;
3331;SDS011;1678;50.94845400;5.30809100;2023-02-23T11:27:44;31.43;;;20.17;;
3331;SDS011;1678;50.94845400;5.30809100;2023-02-23T11:30:18;30.73;;;21.87;;
3331;SDS011;1678;50.94845400;5.30809100;2023-02-23T11:32:52;32.93;;;20.17;;
3331;SDS011;1678;50.94845400;5.30809100;2023-02-23T11:35:27;31.40;;;19.50;;
3331;SDS011;1678;50.94845400;5.30809100;2023-02-23T11:37:57;32.97;;;20.23;;
3331;SDS011;1678;50.94845400;5.30809100;2023-02-23T11:40:26;33.83;;;21.00;;
3331;SDS011;1678;50.94845400;5.30809100;2023-02-23T11:42:59;35.40;;;20.40;;
3331;SDS011;1678;50.94845400;5.30809100;2023-02-23T11:45:36;32.53;;;21.30;;
3331;SDS011;1678;50.94845400;5.30809100;2023-02-23T11:48:18;37.03;;;21.17;;
3331;SDS011;1678;50.94845400;5.30809100;2023-02-23T11:50:49;27.10;;;17.53;;
3331;SDS011;1678;50.94845400;5.30809100;2023-02-23T11:53:20;38.20;;;21.73;;
3331;SDS011;1678;50.94845400;5.30809100;2023-02-23T11:55:54;33.77;;;22.03;;
3331;SDS011;1678;50.94845400;5.30809100;2023-02-23T11:58:35;36.40;;;22.53;;
3331;SDS011;1678;50.94845400;5.30809100;2023-02-23T12:01:06;37.13;;;23.17;;
3331;SDS011;1678;50.94845400;5.30809100;2023-02-23T12:03:42;37.63;;;21.20;;
3331;SDS011;1678;50.94845400;5.30809100;2023-02-23T12:06:24;38.77;;;23.20;;
3331;SDS011;1678;50.94845400;5.30809100;2023-02-23T12:08:56;38.83;;;24.60;;
3331;SDS011;1678;50.94845400;5.30809100;2023-02-23T12:11:32;49.23;;;27.53;;
3331;SDS011;1678;50.94845400;5.30809100;2023-02-23T12:14:06;48.70;;;26.40;;
3331;SDS011;1678;50.94845400;5.30809100;2023-02-23T12:16:39;43.00;;;25.07;;
3331;SDS011;1678;50.94845400;5.30809100;2023-02-23T12:19:16;46.87;;;27.10;;
3331;SDS011;1678;50.94845400;5.30809100;2023-02-23T12:21:52;39.83;;;24.00;;
3331;SDS011;1678;50.94845400;5.30809100;2023-02-23T12:24:27;79.40;;;43.80;;
3331;SDS011;1678;50.94845400;5.30809100;2023-02-23T12:27:07;47.10;;;23.80;;
3331;SDS011;1678;50.94845400;5.30809100;2023-02-23T12:29:40;42.67;;;25.80;;
3331;SDS011;1678;50.94845400;5.30809100;2023-02-23T12:32:20;40.33;;;22.43;;
3331;SDS011;1678;50.94845400;5.30809100;2023-02-23T12:34:53;45.80;;;25.97;;
3331;SDS011;1678;50.94845400;5.30809100;2023-02-23T12:37:29;37.93;;;22.17;;
3331;SDS011;1678;50.94845400;5.30809100;2023-02-23T12:40:06;45.30;;;24.80;;
3331;SDS011;1678;50.94845400;5.30809100;2023-02-23T12:42:44;40.60;;;24.10;;
3331;SDS011;1678;50.94845400;5.30809100;2023-02-23T12:45:23;46.40;;;23.60;;
3331;SDS011;1678;50.94845400;5.30809100;2023-02-23T12:47:58;42.10;;;24.17;;
3331;SDS011;1678;50.94845400;5.30809100;2023-02-23T12:50:34;43.33;;;25.00;;
3331;SDS011;1678;50.94845400;5.30809100;2023-02-23T12:53:13;37.60;;;22.80;;
3331;SDS011;1678;50.94845400;5.30809100;2023-02-23T12:55:49;42.97;;;22.97;;
3331;SDS011;1678;50.94845400;5.30809100;2023-02-23T12:58:28;37.33;;;21.23;;
3331;SDS011;1678;50.94845400;5.30809100;2023-02-23T13:01:07;37.73;;;24.10;;
3331;SDS011;1678;50.94845400;5.30809100;2023-02-23T13:07:04;44.53;;;23.13;;
3331;SDS011;1678;50.94845400;5.30809100;2023-02-23T13:09:42;37.07;;;22.33;;
3331;SDS011;1678;50.94845400;5.30809100;2023-02-23T13:12:21;40.57;;;22.77;;
3331;SDS011;1678;50.94845400;5.30809100;2023-02-23T13:15:06;32.83;;;20.27;;
3331;SDS011;1678;50.94845400;5.30809100;2023-02-23T13:17:46;29.43;;;19.10;;
3331;SDS011;1678;50.94845400;5.30809100;2023-02-23T13:20:21;41.80;;;23.20;;
3331;SDS011;1678;50.94845400;5.30809100;2023-02-23T13:23:03;38.43;;;23.23;;
3331;SDS011;1678;50.94845400;5.30809100;2023-02-23T13:25:42;41.30;;;23.10;;
3331;SDS011;1678;50.94845400;5.30809100;2023-02-23T13:28:17;41.67;;;23.57;;
3331;SDS011;1678;50.94845400;5.30809100;2023-02-23T13:30:49;47.60;;;24.50;;
3331;SDS011;1678;50.94845400;5.30809100;2023-02-23T13:33:22;47.53;;;28.47;;
3331;SDS011;1678;50.94845400;5.30809100;2023-02-23T13:36:08;36.53;;;22.40;;
3331;SDS011;1678;50.94845400;5.30809100;2023-02-23T13:38:40;50.00;;;26.30;;
3331;SDS011;1678;50.94845400;5.30809100;2023-02-23T13:41:18;42.93;;;22.50;;
3331;SDS011;1678;50.94845400;5.30809100;2023-02-23T13:43:54;45.00;;;24.40;;
3331;SDS011;1678;50.94845400;5.30809100;2023-02-23T13:46:29;39.00;;;24.03;;
3331;SDS011;1678;50.94845400;5.30809100;2023-02-23T13:49:14;40.50;;;24.47;;
3331;SDS011;1678;50.94845400;5.30809100;2023-02-23T13:51:50;42.43;;;26.53;;
3331;SDS011;1678;50.94845400;5.30809100;2023-02-23T13:54:29;46.20;;;24.73;;
3331;SDS011;1678;50.94845400;5.30809100;2023-02-23T13:57:00;45.97;;;28.37;;
3331;SDS011;1678;50.94845400;5.30809100;2023-02-23T13:59:35;48.10;;;24.70;;
3331;SDS011;1678;50.94845400;5.30809100;2023-02-23T14:02:18;48.17;;;26.60;;
3331;SDS011;1678;50.94845400;5.30809100;2023-02-23T14:04:55;63.60;;;34.60;;
3331;SDS011;1678;50.94845400;5.30809100;2023-02-23T14:07:25;46.37;;;28.67;;
3331;SDS011;1678;50.94845400;5.30809100;2023-02-23T14:09:59;48.40;;;27.20;;
3331;SDS011;1678;50.94845400;5.30809100;2023-02-23T14:12:33;46.77;;;29.20;;
3331;SDS011;1678;50.94845400;5.30809100;2023-02-23T14:17:56;57.63;;;30.23;;
3331;SDS011;1678;50.94845400;5.30809100;2023-02-23T14:20:38;45.07;;;29.10;;
3331;SDS011;1678;50.94845400;5.30809100;2023-02-23T14:23:25;60.93;;;31.93;;
3331;SDS011;1678;50.94845400;5.30809100;2023-02-23T14:26:11;56.20;;;30.40;;
3331;SDS011;1678;50.94845400;5.30809100;2023-02-23T14:28:45;46.93;;;26.80;;
3331;SDS011;1678;50.94845400;5.30809100;2023-02-23T14:31:17;41.07;;;24.60;;
3331;SDS011;1678;50.94845400;5.30809100;2023-02-23T14:33:49;47.00;;;26.30;;
3331;SDS011;1678;50.94845400;5.30809100;2023-02-23T14:36:32;46.90;;;26.23;;
3331;SDS011;1678;50.94845400;5.30809100;2023-02-23T14:39:05;47.43;;;26.57;;
3331;SDS011;1678;50.94845400;5.30809100;2023-02-23T14:41:39;39.97;;;23.43;;
3331;SDS011;1678;50.94845400;5.30809100;2023-02-23T14:44:16;44.53;;;21.93;;
3331;SDS011;1678;50.94845400;5.30809100;2023-02-23T14:46:56;54.07;;;24.80;;
3331;SDS011;1678;50.94845400;5.30809100;2023-02-23T14:49:30;36.83;;;22.63;;
3331;SDS011;1678;50.94845400;5.30809100;2023-02-23T14:52:04;43.73;;;25.13;;
3331;SDS011;1678;50.94845400;5.30809100;2023-02-23T14:54:34;38.77;;;23.97;;
3331;SDS011;1678;50.94845400;5.30809100;2023-02-23T14:57:13;46.67;;;25.57;;
3331;SDS011;1678;50.94845400;5.30809100;2023-02-23T14:59:44;37.40;;;23.50;;
3331;SDS011;1678;50.94845400;5.30809100;2023-02-23T15:02:21;44.33;;;25.53;;
3331;SDS011;1678;50.94845400;5.30809100;2023-02-23T15:04:50;43.43;;;24.77;;
3331;SDS011;1678;50.94845400;5.30809100;2023-02-23T15:07:20;43.70;;;25.10;;
3331;SDS011;1678;50.94845400;5.30809100;2023-02-23T15:09:56;40.73;;;22.00;;
3331;SDS011;1678;50.94845400;5.30809100;2023-02-23T15:12:28;44.87;;;23.20;;
3331;SDS011;1678;50.94845400;5.30809100;2023-02-23T15:15:01;43.13;;;21.33;;
3331;SDS011;1678;50.94845400;5.30809100;2023-02-23T15:17:31;53.30;;;25.17;;
3331;SDS011;1678;50.94845400;5.30809100;2023-02-23T15:20:01;47.13;;;24.50;;
3331;SDS011;1678;50.94845400;5.30809100;2023-02-23T15:22:41;44.73;;;24.20;;
3331;SDS011;1678;50.94845400;5.30809100;2023-02-23T15:25:14;50.67;;;23.30;;
3331;SDS011;1678;50.94845400;5.30809100;2023-02-23T15:27:45;40.93;;;22.13;;
3331;SDS011;1678;50.94845400;5.30809100;2023-02-23T15:30:18;43.87;;;24.00;;
3331;SDS011;1678;50.94845400;5.30809100;2023-02-23T15:32:48;42.93;;;21.90;;
3331;SDS011;1678;50.94845400;5.30809100;2023-02-23T15:35:26;42.37;;;22.97;;
3331;SDS011;1678;50.94845400;5.30809100;2023-02-23T15:37:56;48.10;;;27.83;;
3331;SDS011;1678;50.94845400;5.30809100;2023-02-23T15:40:43;42.07;;;22.43;;
3331;SDS011;1678;50.94845400;5.30809100;2023-02-23T15:43:13;36.80;;;21.67;;
3331;SDS011;1678;50.94845400;5.30809100;2023-02-23T15:45:42;46.33;;;22.83;;
3331;SDS011;1678;50.94845400;5.30809100;2023-02-23T15:48:16;29.90;;;18.23;;
3331;SDS011;1678;50.94845400;5.30809100;2023-02-23T15:50:49;33.37;;;21.47;;
3331;SDS011;1678;50.94845400;5.30809100;2023-02-23T15:53:22;27.93;;;17.30;;
3331;SDS011;1678;50.94845400;5.30809100;2023-02-23T15:55:56;26.97;;;16.10;;
3331;SDS011;1678;50.94845400;5.30809100;2023-02-23T15:58:31;36.10;;;20.20;;
3331;SDS011;1678;50.94845400;5.30809100;2023-02-23T16:01:19;28.47;;;16.80;;
3331;SDS011;1678;50.94845400;5.30809100;2023-02-23T16:03:59;31.23;;;17.00;;
3331;SDS011;1678;50.94845400;5.30809100;2023-02-23T16:06:32;25.87;;;14.90;;
3331;SDS011;1678;50.94845400;5.30809100;2023-02-23T16:09:12;38.23;;;18.87;;
3331;SDS011;1678;50.94845400;5.30809100;2023-02-23T16:11:50;37.30;;;19.90;;
3331;SDS011;1678;50.94845400;5.30809100;2023-02-23T16:37:24;47.07;;;22.50;;
3331;SDS011;1678;50.94845400;5.30809100;2023-02-23T16:43:34;16.63;;;12.53;;
3331;SDS011;1678;50.94845400;5.30809100;2023-02-23T16:46:02;10.70;;;7.87;;
3331;SDS011;1678;50.94845400;5.30809100;2023-02-23T16:48:31;15.90;;;11.00;;
3331;SDS011;1678;50.94845400;5.30809100;2023-02-23T16:51:01;15.07;;;8.83;;
3331;SDS011;1678;50.94845400;5.30809100;2023-02-23T16:53:31;15.13;;;9.40;;
3331;SDS011;1678;50.94845400;5.30809100;2023-02-23T16:55:59;12.00;;;9.83;;
3331;SDS011;1678;50.94845400;5.30809100;2023-02-23T16:58:27;10.20;;;9.10;;
3331;SDS011;1678;50.94845400;5.30809100;2023-02-23T17:00:57;11.00;;;8.97;;
3331;SDS011;1678;50.94845400;5.30809100;2023-02-23T17:03:26;15.53;;;10.30;;
3331;SDS011;1678;50.94845400;5.30809100;2023-02-23T17:05:55;33.87;;;10.43;;
3331;SDS011;1678;50.94845400;5.30809100;2023-02-23T17:08:23;14.50;;;8.97;;
3331;SDS011;1678;50.94845400;5.30809100;2023-02-23T17:10:53;15.00;;;7.00;;
3331;SDS011;1678;50.94845400;5.30809100;2023-02-23T17:13:23;12.63;;;10.03;;
3331;SDS011;1678;50.94845400;5.30809100;2023-02-23T17:15:53;14.97;;;8.80;;
3331;SDS011;1678;50.94845400;5.30809100;2023-02-23T17:18:22;17.50;;;9.47;;
3331;SDS011;1678;50.94845400;5.30809100;2023-02-23T17:20:53;15.50;;;9.27;;
3331;SDS011;1678;50.94845400;5.30809100;2023-02-23T17:23:23;14.10;;;8.10;;
3331;SDS011;1678;50.94845400;5.30809100;2023-02-23T17:25:55;29.43;;;9.10;;
3331;SDS011;1678;50.94845400;5.30809100;2023-02-23T17:28:24;19.80;;;12.97;;
3331;SDS011;1678;50.94845400;5.30809100;2023-02-23T17:30:52;17.53;;;10.90;;
3331;SDS011;1678;50.94845400;5.30809100;2023-02-23T17:33:20;19.03;;;10.60;;
3331;SDS011;1678;50.94845400;5.30809100;2023-02-23T17:35:48;17.37;;;10.70;;
3331;SDS011;1678;50.94845400;5.30809100;2023-02-23T17:38:16;18.87;;;11.10;;
3331;SDS011;1678;50.94845400;5.30809100;2023-02-23T17:40:46;28.87;;;13.87;;
3331;SDS011;1678;50.94845400;5.30809100;2023-02-23T17:43:16;13.80;;;9.77;;
3331;SDS011;1678;50.94845400;5.30809100;2023-02-23T17:45:48;29.10;;;13.37;;
3331;SDS011;1678;50.94845400;5.30809100;2023-02-23T17:48:16;26.37;;;13.30;;
3331;SDS011;1678;50.94845400;5.30809100;2023-02-23T17:50:44;21.43;;;13.63;;
3331;SDS011;1678;50.94845400;5.30809100;2023-02-23T17:53:12;16.03;;;12.70;;
3331;SDS011;1678;50.94845400;5.30809100;2023-02-23T17:55:40;22.40;;;13.47;;
3331;SDS011;1678;50.94845400;5.30809100;2023-02-23T17:58:08;16.40;;;10.50;;
3331;SDS011;1678;50.94845400;5.30809100;2023-02-23T18:00:40;18.03;;;11.47;;
3331;SDS011;1678;50.94845400;5.30809100;2023-02-23T18:03:08;14.70;;;10.83;;
3331;SDS011;1678;50.94845400;5.30809100;2023-02-23T18:05:36;22.10;;;12.20;;
3331;SDS011;1678;50.94845400;5.30809100;2023-02-23T18:08:04;15.50;;;12.10;;
3331;SDS011;1678;50.94845400;5.30809100;2023-02-23T18:10:33;25.40;;;17.93;;
3331;SDS011;1678;50.94845400;5.30809100;2023-02-23T18:13:02;17.70;;;12.40;;
3331;SDS011;1678;50.94845400;5.30809100;2023-02-23T18:15:31;19.90;;;11.60;;
3331;SDS011;1678;50.94845400;5.30809100;2023-02-23T18:18:00;17.27;;;12.87;;
3331;SDS011;1678;50.94845400;5.30809100;2023-02-23T18:20:29;16.40;;;10.10;;
3331;SDS011;1678;50.94845400;5.30809100;2023-02-23T18:22:57;21.10;;;10.70;;
3331;SDS011;1678;50.94845400;5.30809100;2023-02-23T18:25:25;14.00;;;10.77;;
3331;SDS011;1678;50.94845400;5.30809100;2023-02-23T18:27:55;18.03;;;13.47;;
3331;SDS011;1678;50.94845400;5.30809100;2023-02-23T18:30:24;15.40;;;9.70;;
3331;SDS011;1678;50.94845400;5.30809100;2023-02-23T18:32:54;18.10;;;12.23;;
3331;SDS011;1678;50.94845400;5.30809100;2023-02-23T18:35:24;21.00;;;16.10;;
3331;SDS011;1678;50.94845400;5.30809100;2023-02-23T18:37:52;18.27;;;13.47;;
3331;SDS011;1678;50.94845400;5.30809100;2023-02-23T18:40:21;19.40;;;12.23;;
3331;SDS011;1678;50.94845400;5.30809100;2023-02-23T18:42:50;17.00;;;12.43;;
3331;SDS011;1678;50.94845400;5.30809100;2023-02-23T18:45:18;23.90;;;15.17;;
3331;SDS011;1678;50.94845400;5.30809100;2023-02-23T18:47:46;23.47;;;15.50;;
3331;SDS011;1678;50.94845400;5.30809100;2023-02-23T18:50:14;17.90;;;11.67;;
3331;SDS011;1678;50.94845400;5.30809100;2023-02-23T18:52:46;152.07;;;61.20;;
3331;SDS011;1678;50.94845400;5.30809100;2023-02-23T18:55:16;36.97;;;23.50;;
3331;SDS011;1678;50.94845400;5.30809100;2023-02-23T18:57:45;39.33;;;23.67;;
3331;SDS011;1678;50.94845400;5.30809100;2023-02-23T19:00:13;25.27;;;15.20;;
3331;SDS011;1678;50.94845400;5.30809100;2023-02-23T19:02:43;18.47;;;11.47;;
3331;SDS011;1678;50.94845400;5.30809100;2023-02-23T19:05:12;18.80;;;12.53;;
3331;SDS011;1678;50.94845400;5.30809100;2023-02-23T19:07:43;15.67;;;10.93;;
3331;SDS011;1678;50.94845400;5.30809100;2023-02-23T19:10:12;16.63;;;11.53;;
3331;SDS011;1678;50.94845400;5.30809100;2023-02-23T19:12:41;22.87;;;11.00;;
3331;SDS011;1678;50.94845400;5.30809100;2023-02-23T19:15:10;15.30;;;10.27;;
3331;SDS011;1678;50.94845400;5.30809100;2023-02-23T19:17:38;15.03;;;9.17;;
3331;SDS011;1678;50.94845400;5.30809100;2023-02-23T19:20:07;24.03;;;12.83;;
3331;SDS011;1678;50.94845400;5.30809100;2023-02-23T19:22:39;20.60;;;12.37;;
3331;SDS011;1678;50.94845400;5.30809100;2023-02-23T19:25:08;14.80;;;9.17;;
3331;SDS011;1678;50.94845400;5.30809100;2023-02-23T19:27:41;21.40;;;11.23;;
3331;SDS011;1678;50.94845400;5.30809100;2023-02-23T19:30:10;23.70;;;14.13;;
3331;SDS011;1678;50.94845400;5.30809100;2023-02-23T19:32:40;24.73;;;14.80;;
3331;SDS011;1678;50.94845400;5.30809100;2023-02-23T19:35:09;23.13;;;12.17;;
3331;SDS011;1678;50.94845400;5.30809100;2023-02-23T19:37:43;19.77;;;11.53;;
3331;SDS011;1678;50.94845400;5.30809100;2023-02-23T19:40:13;20.90;;;12.30;;
3331;SDS011;1678;50.94845400;5.30809100;2023-02-23T19:42:46;22.47;;;12.17;;
3331;SDS011;1678;50.94845400;5.30809100;2023-02-23T19:45:15;19.17;;;13.70;;
3331;SDS011;1678;50.94845400;5.30809100;2023-02-23T19:47:45;16.60;;;10.23;;
3331;SDS011;1678;50.94845400;5.30809100;2023-02-23T19:50:15;28.40;;;12.27;;
3331;SDS011;1678;50.94845400;5.30809100;2023-02-23T19:52:44;15.67;;;10.47;;
3331;SDS011;1678;50.94845400;5.30809100;2023-02-23T19:55:13;25.40;;;11.80;;
3331;SDS011;1678;50.94845400;5.30809100;2023-02-23T19:57:42;21.93;;;13.37;;
3331;SDS011;1678;50.94845400;5.30809100;2023-02-23T20:00:12;17.07;;;11.27;;
3331;SDS011;1678;50.94845400;5.30809100;2023-02-23T20:02:41;21.67;;;12.60;;
3331;SDS011;1678;50.94845400;5.30809100;2023-02-23T20:05:10;18.40;;;12.70;;
3331;SDS011;1678;50.94845400;5.30809100;2023-02-23T20:07:38;19.90;;;12.73;;
3331;SDS011;1678;50.94845400;5.30809100;2023-02-23T21:03:24;23.53;;;13.90;;
3331;SDS011;1678;50.94845400;5.30809100;2023-02-23T21:05:52;20.83;;;14.00;;
3331;SDS011;1678;50.94845400;5.30809100;2023-02-23T21:08:25;35.23;;;19.80;;
3331;SDS011;1678;50.94845400;5.30809100;2023-02-23T21:10:54;31.27;;;17.67;;
3331;SDS011;1678;50.94845400;5.30809100;2023-02-23T21:13:22;29.40;;;18.23;;
3331;SDS011;1678;50.94845400;5.30809100;2023-02-23T21:15:53;27.83;;;16.93;;
3331;SDS011;1678;50.94845400;5.30809100;2023-02-23T21:18:29;63.53;;;43.57;;
3331;SDS011;1678;50.94845400;5.30809100;2023-02-23T21:20:58;42.13;;;27.03;;
3331;SDS011;1678;50.94845400;5.30809100;2023-02-23T21:23:35;35.17;;;21.20;;
3331;SDS011;1678;50.94845400;5.30809100;2023-02-23T21:26:04;36.27;;;17.40;;
3331;SDS011;1678;50.94845400;5.30809100;2023-02-23T21:28:39;29.63;;;17.80;;
3331;SDS011;1678;50.94845400;5.30809100;2023-02-23T21:31:08;29.47;;;16.37;;
3331;SDS011;1678;50.94845400;5.30809100;2023-02-23T21:33:40;19.83;;;13.17;;
3331;SDS011;1678;50.94845400;5.30809100;2023-02-23T21:36:10;22.20;;;14.33;;
3331;SDS011;1678;50.94845400;5.30809100;2023-02-23T21:42:36;16.43;;;10.67;;
3331;SDS011;1678;50.94845400;5.30809100;2023-02-23T21:45:05;18.77;;;9.83;;
3331;SDS011;1678;50.94845400;5.30809100;2023-02-23T21:47:35;15.00;;;11.00;;
3331;SDS011;1678;50.94845400;5.30809100;2023-02-23T21:50:06;22.30;;;10.43;;
3331;SDS011;1678;50.94845400;5.30809100;2023-02-23T21:52:38;24.77;;;10.00;;
3331;SDS011;1678;50.94845400;5.30809100;2023-02-23T21:55:09;20.87;;;8.97;;
3331;SDS011;1678;50.94845400;5.30809100;2023-02-23T21:57:46;15.80;;;9.97;;
3331;SDS011;1678;50.94845400;5.30809100;2023-02-23T22:00:15;25.10;;;9.40;;
3331;SDS011;1678;50.94845400;5.30809100;2023-02-23T22:02:44;12.90;;;8.37;;
3331;SDS011;1678;50.94845400;5.30809100;2023-02-23T22:05:14;12.80;;;8.27;;
3331;SDS011;1678;50.94845400;5.30809100;2023-02-23T22:07:46;15.70;;;11.23;;
3331;SDS011;1678;50.94845400;5.30809100;2023-02-23T22:10:15;14.33;;;10.23;;
3331;SDS011;1678;50.94845400;5.30809100;2023-02-23T22:12:44;27.23;;;11.87;;
3331;SDS011;1678;50.94845400;5.30809100;2023-02-23T22:15:12;21.63;;;13.83;;
3331;SDS011;1678;50.94845400;5.30809100;2023-02-23T22:17:42;18.87;;;13.50;;
3331;SDS011;1678;50.94845400;5.30809100;2023-02-23T22:20:11;17.83;;;10.63;;
3331;SDS011;1678;50.94845400;5.30809100;2023-02-23T22:22:45;21.83;;;10.83;;
3331;SDS011;1678;50.94845400;5.30809100;2023-02-23T22:25:15;23.07;;;15.43;;
3331;SDS011;1678;50.94845400;5.30809100;2023-02-23T22:27:45;23.43;;;13.97;;
3331;SDS011;1678;50.94845400;5.30809100;2023-02-23T22:32:41;17.03;;;10.90;;
3331;SDS011;1678;50.94845400;5.30809100;2023-02-23T22:35:10;16.60;;;11.47;;
3331;SDS011;1678;50.94845400;5.30809100;2023-02-23T22:37:39;22.70;;;13.13;;
3331;SDS011;1678;50.94845400;5.30809100;2023-02-23T22:40:08;24.70;;;15.07;;
3331;SDS011;1678;50.94845400;5.30809100;2023-02-23T22:42:43;27.37;;;9.93;;
3331;SDS011;1678;50.94845400;5.30809100;2023-02-23T22:45:13;20.50;;;10.10;;
3331;SDS011;1678;50.94845400;5.30809100;2023-02-23T22:47:42;17.07;;;10.07;;
3331;SDS011;1678;50.94845400;5.30809100;2023-02-23T22:50:11;19.27;;;9.67;;
3331;SDS011;1678;50.94845400;5.30809100;2023-02-23T22:52:44;17.40;;;11.00;;
3331;SDS011;1678;50.94845400;5.30809100;2023-02-23T22:55:13;30.20;;;13.00;;
3331;SDS011;1678;50.94845400;5.30809100;2023-02-23T22:57:41;32.73;;;16.23;;
3331;SDS011;1678;50.94845400;5.30809100;2023-02-23T23:00:12;25.73;;;13.30;;
3331;SDS011;1678;50.94845400;5.30809100;2023-02-23T23:02:42;42.13;;;17.70;;
3331;SDS011;1678;50.94845400;5.30809100;2023-02-23T23:05:10;27.50;;;13.30;;
3331;SDS011;1678;50.94845400;5.30809100;2023-02-23T23:07:40;30.83;;;13.90;;
3331;SDS011;1678;50.94845400;5.30809100;2023-02-23T23:10:13;25.37;;;11.13;;
3331;SDS011;1678;50.94845400;5.30809100;2023-02-23T23:12:41;27.55;;;12.05;;
3331;SDS011;1678;50.94845400;5.30809100;2023-02-23T23:15:10;30.48;;;14.48;;
3331;SDS011;1678;50.94845400;5.30809100;2023-02-23T23:17:44;26.63;;;11.60;;
3331;SDS011;1678;50.94845400;5.30809100;2023-02-23T23:20:14;44.17;;;12.18;;
3331;SDS011;1678;50.94845400;5.30809100;2023-02-23T23:22:44;18.20;;;10.17;;
3331;SDS011;1678;50.94845400;5.30809100;2023-02-23T23:25:13;25.10;;;11.77;;
3331;SDS011;1678;50.94845400;5.30809100;2023-02-23T23:27:48;32.83;;;10.40;;
3331;SDS011;1678;50.94845400;5.30809100;2023-02-23T23:30:18;35.75;;;12.88;;
3331;SDS011;1678;50.94845400;5.30809100;2023-02-23T23:32:51;15.15;;;8.25;;
3331;SDS011;1678;50.94845400;5.30809100;2023-02-23T23:35:19;23.77;;;8.75;;
3331;SDS011;1678;50.94845400;5.30809100;2023-02-23T23:37:48;32.67;;;8.90;;
3331;SDS011;1678;50.94845400;5.30809100;2023-02-23T23:40:18;24.30;;;10.03;;
3331;SDS011;1678;50.94845400;5.30809100;2023-02-23T23:42:49;23.38;;;8.80;;
3331;SDS011;1678;50.94845400;5.30809100;2023-02-23T23:45:18;17.67;;;8.35;;
3331;SDS011;1678;50.94845400;5.30809100;2023-02-23T23:47:49;30.15;;;8.77;;
3331;SDS011;1678;50.94845400;5.30809100;2023-02-23T23:50:17;26.88;;;7.43;;
3331;SDS011;1678;50.94845400;5.30809100;2023-02-23T23:52:52;25.98;;;8.80;;
3331;SDS011;1678;50.94845400;5.30809100;2023-02-23T23:55:23;19.97;;;7.80;;
3331;SDS011;1678;50.94845400;5.30809100;2023-02-23T23:57:56;19.35;;;8.20;;
